Rawtenstall, United Kingdom
Current Conditions -  °F | °C
As of 6:20 PM on Monday 22 Dec 2014 (Local Time) from EGCC Reporting Station
Light Rain Light Rain  
Wind Chill: 52°   Ceiling: 2300
Heat Index: 52°   Visibility: 6mi
Dew Point: 48°   Wind: 18mph
Humidity: 88%   Direction: 240°WSW
Pressure: 29.85"   Gusts: NA
Location:  53.71°N, 2.24°W
Report Text: EGCC 221820Z 24016KT 9000 -RADZ FEW019 BKN023 11/09 Q1011 NOSIG
Loading
Personal Weather Stations






























Interactive Weather Map New forecast layout! Learn more

10-Day Weather Forecast

Advertisements
Track Severe Weather on mobile